sensor_id;sensor_type;location;lat;lon;timestamp;pressure;altitude;pressure_sealevel;temperature;humidity
54022;BME280;39936;51.058;17.220;2022-09-09T00:02:52;101261.89;;;14.96;100.00
54022;BME280;39936;51.058;17.220;2022-09-09T00:06:50;101281.25;;;14.96;100.00
54022;BME280;39936;51.058;17.220;2022-09-09T00:13:41;101283.91;;;14.79;100.00
54022;BME280;39936;51.058;17.220;2022-09-09T00:17:12;101281.05;;;14.79;100.00
54022;BME280;39936;51.058;17.220;2022-09-09T00:30:49;101280.45;;;14.70;100.00
54022;BME280;39936;51.058;17.220;2022-09-09T00:34:12;101277.39;;;14.66;100.00
54022;BME280;39936;51.058;17.220;2022-09-09T00:37:29;101276.16;;;14.60;100.00
54022;BME280;39936;51.058;17.220;2022-09-09T00:40:56;101275.05;;;14.56;100.00
54022;BME280;39936;51.058;17.220;2022-09-09T00:47:49;101283.62;;;14.44;100.00
54022;BME280;39936;51.058;17.220;2022-09-09T00:57:57;101285.63;;;14.19;100.00
54022;BME280;39936;51.058;17.220;2022-09-09T01:01:12;101282.59;;;14.11;100.00
54022;BME280;39936;51.058;17.220;2022-09-09T01:04:32;101285.45;;;14.06;100.00
54022;BME280;39936;51.058;17.220;2022-09-09T01:07:49;101284.49;;;14.00;100.00
54022;BME280;39936;51.058;17.220;2022-09-09T01:11:00;101285.16;;;13.97;100.00
54022;BME280;39936;51.058;17.220;2022-09-09T01:24:38;101301.02;;;13.76;100.00
54022;BME280;39936;51.058;17.220;2022-09-09T01:27:50;101301.04;;;13.71;100.00
54022;BME280;39936;51.058;17.220;2022-09-09T01:31:27;101305.85;;;13.64;100.00
54022;BME280;39936;51.058;17.220;2022-09-09T01:34:41;101309.29;;;13.55;100.00
54022;BME280;39936;51.058;17.220;2022-09-09T01:37:55;101310.26;;;13.46;100.00
54022;BME280;39936;51.058;17.220;2022-09-09T01:41:05;101313.25;;;13.36;100.00
54022;BME280;39936;51.058;17.220;2022-09-09T01:44:23;101316.29;;;13.21;100.00
54022;BME280;39936;51.058;17.220;2022-09-09T01:47:35;101316.60;;;13.12;100.00
54022;BME280;39936;51.058;17.220;2022-09-09T01:50:52;101321.75;;;13.06;100.00
54022;BME280;39936;51.058;17.220;2022-09-09T01:54:01;101325.71;;;13.03;100.00
54022;BME280;39936;51.058;17.220;2022-09-09T02:00:43;101325.45;;;12.97;100.00
54022;BME280;39936;51.058;17.220;2022-09-09T02:03:58;101328.52;;;12.94;100.00
54022;BME280;39936;51.058;17.220;2022-09-09T02:10:50;101317.57;;;12.87;100.00
54022;BME280;39936;51.058;17.220;2022-09-09T02:14:08;101330.66;;;12.94;100.00
54022;BME280;39936;51.058;17.220;2022-09-09T02:17:27;101336.49;;;12.90;100.00
54022;BME280;39936;51.058;17.220;2022-09-09T02:20:39;101340.60;;;12.85;100.00
54022;BME280;39936;51.058;17.220;2022-09-09T02:23:48;101343.62;;;12.76;100.00
54022;BME280;39936;51.058;17.220;2022-09-09T02:27:05;101345.77;;;12.64;100.00
54022;BME280;39936;51.058;17.220;2022-09-09T02:30:20;101349.84;;;12.57;100.00
54022;BME280;39936;51.058;17.220;2022-09-09T02:33:42;101349.38;;;12.53;100.00
54022;BME280;39936;51.058;17.220;2022-09-09T02:37:01;101342.94;;;12.52;100.00
54022;BME280;39936;51.058;17.220;2022-09-09T02:40:20;101351.32;;;12.53;100.00
54022;BME280;39936;51.058;17.220;2022-09-09T02:43:34;101353.74;;;12.54;100.00
54022;BME280;39936;51.058;17.220;2022-09-09T02:51:23;101357.56;;;12.51;100.00
54022;BME280;39936;51.058;17.220;2022-09-09T02:55:21;101356.73;;;12.58;100.00
54022;BME280;39936;51.058;17.220;2022-09-09T02:58:40;101316.83;;;12.36;100.00
54022;BME280;39936;51.058;17.220;2022-09-09T03:01:48;101359.66;;;12.67;100.00
54022;BME280;39936;51.058;17.220;2022-09-09T03:05:05;101364.04;;;12.67;100.00
54022;BME280;39936;51.058;17.220;2022-09-09T03:08:18;101364.64;;;12.65;100.00
54022;BME280;39936;51.058;17.220;2022-09-09T03:11:53;101368.98;;;12.61;100.00
54022;BME280;39936;51.058;17.220;2022-09-09T03:15:26;101368.81;;;12.58;100.00
54022;BME280;39936;51.058;17.220;2022-09-09T03:18:41;101378.16;;;12.55;100.00
54022;BME280;39936;51.058;17.220;2022-09-09T03:22:25;101379.19;;;12.51;100.00
54022;BME280;39936;51.058;17.220;2022-09-09T03:25:34;101379.66;;;12.47;100.00
54022;BME280;39936;51.058;17.220;2022-09-09T03:28:51;101380.05;;;12.42;100.00
54022;BME280;39936;51.058;17.220;2022-09-09T03:32:06;101375.42;;;12.39;100.00
54022;BME280;39936;51.058;17.220;2022-09-09T03:35:26;101378.33;;;12.33;100.00
54022;BME280;39936;51.058;17.220;2022-09-09T03:39:25;101380.48;;;12.28;100.00
54022;BME280;39936;51.058;17.220;2022-09-09T03:42:38;101386.38;;;12.22;100.00
54022;BME280;39936;51.058;17.220;2022-09-09T03:46:11;101388.44;;;12.21;100.00
54022;BME280;39936;51.058;17.220;2022-09-09T03:49:28;101387.01;;;12.22;100.00
54022;BME280;39936;51.058;17.220;2022-09-09T03:52:43;101385.87;;;12.22;100.00
54022;BME280;39936;51.058;17.220;2022-09-09T03:56:14;101388.94;;;12.21;100.00
54022;BME280;39936;51.058;17.220;2022-09-09T03:59:29;101388.54;;;12.18;100.00
54022;BME280;39936;51.058;17.220;2022-09-09T04:02:57;101394.74;;;12.12;100.00
54022;BME280;39936;51.058;17.220;2022-09-09T04:06:43;101399.93;;;12.11;100.00
54022;BME280;39936;51.058;17.220;2022-09-09T04:09:52;101402.37;;;12.04;100.00
54022;BME280;39936;51.058;17.220;2022-09-09T04:13:11;101401.75;;;12.01;100.00
54022;BME280;39936;51.058;17.220;2022-09-09T04:16:30;101403.08;;;11.97;100.00
54022;BME280;39936;51.058;17.220;2022-09-09T04:19:42;101408.09;;;11.99;100.00
54022;BME280;39936;51.058;17.220;2022-09-09T04:23:13;101406.12;;;12.04;100.00
54022;BME280;39936;51.058;17.220;2022-09-09T04:26:28;101407.30;;;12.05;100.00
54022;BME280;39936;51.058;17.220;2022-09-09T04:29:42;101407.38;;;12.06;100.00
54022;BME280;39936;51.058;17.220;2022-09-09T04:33:02;101411.47;;;12.08;100.00
54022;BME280;39936;51.058;17.220;2022-09-09T04:36:42;101412.05;;;12.11;100.00
54022;BME280;39936;51.058;17.220;2022-09-09T04:39:55;101409.02;;;12.08;100.00
54022;BME280;39936;51.058;17.220;2022-09-09T04:43:29;101410.59;;;12.12;100.00
54022;BME280;39936;51.058;17.220;2022-09-09T04:46:46;101409.66;;;12.21;100.00
54022;BME280;39936;51.058;17.220;2022-09-09T04:50:12;101313.66;;;11.66;100.00
54022;BME280;39936;51.058;17.220;2022-09-09T04:53:34;101406.87;;;12.65;100.00
54022;BME280;39936;51.058;17.220;2022-09-09T04:57:00;101409.44;;;12.86;100.00
54022;BME280;39936;51.058;17.220;2022-09-09T05:00:18;101406.23;;;12.97;100.00
54022;BME280;39936;51.058;17.220;2022-09-09T05:03:33;101405.46;;;12.94;100.00
54022;BME280;39936;51.058;17.220;2022-09-09T05:06:50;101408.82;;;12.98;100.00
54022;BME280;39936;51.058;17.220;2022-09-09T05:10:18;101411.56;;;12.99;100.00
54022;BME280;39936;51.058;17.220;2022-09-09T05:13:30;101411.12;;;13.22;100.00
54022;BME280;39936;51.058;17.220;2022-09-09T05:16:49;101411.40;;;13.79;100.00
54022;BME280;39936;51.058;17.220;2022-09-09T05:20:07;101389.03;;;13.94;100.00
54022;BME280;39936;51.058;17.220;2022-09-09T05:23:22;101406.13;;;14.14;100.00
54022;BME280;39936;51.058;17.220;2022-09-09T05:26:33;101409.60;;;14.13;100.00
54022;BME280;39936;51.058;17.220;2022-09-09T05:29:58;101410.91;;;14.06;100.00
54022;BME280;39936;51.058;17.220;2022-09-09T05:33:29;101408.81;;;14.12;100.00
54022;BME280;39936;51.058;17.220;2022-09-09T05:36:44;101415.69;;;14.22;100.00
54022;BME280;39936;51.058;17.220;2022-09-09T05:40:37;101419.63;;;14.46;100.00
54022;BME280;39936;51.058;17.220;2022-09-09T05:43:53;101417.41;;;14.66;100.00
54022;BME280;39936;51.058;17.220;2022-09-09T05:48:00;101414.39;;;14.79;100.00
54022;BME280;39936;51.058;17.220;2022-09-09T05:55:15;101411.98;;;15.16;100.00
54022;BME280;39936;51.058;17.220;2022-09-09T05:58:33;101408.58;;;15.27;100.00
54022;BME280;39936;51.058;17.220;2022-09-09T06:02:15;101402.88;;;15.37;100.00
54022;BME280;39936;51.058;17.220;2022-09-09T06:05:38;101415.38;;;15.53;100.00
54022;BME280;39936;51.058;17.220;2022-09-09T06:08:56;101413.42;;;15.62;100.00
54022;BME280;39936;51.058;17.220;2022-09-09T06:16:23;101400.88;;;16.08;100.00
54022;BME280;39936;51.058;17.220;2022-09-09T06:19:41;101399.76;;;16.22;100.00
54022;BME280;39936;51.058;17.220;2022-09-09T06:22:51;101395.05;;;16.43;100.00
54022;BME280;39936;51.058;17.220;2022-09-09T06:26:35;101394.48;;;16.73;100.00
54022;BME280;39936;51.058;17.220;2022-09-09T06:38:00;101389.36;;;17.49;100.00
54022;BME280;39936;51.058;17.220;2022-09-09T06:41:24;101387.33;;;17.73;100.00
54022;BME280;39936;51.058;17.220;2022-09-09T06:44:35;101389.34;;;18.08;100.00
54022;BME280;39936;51.058;17.220;2022-09-09T06:49:14;101395.18;;;18.16;100.00
54022;BME280;39936;51.058;17.220;2022-09-09T06:53:20;101392.55;;;18.39;100.00
54022;BME280;39936;51.058;17.220;2022-09-09T06:57:42;101387.55;;;18.77;100.00
54022;BME280;39936;51.058;17.220;2022-09-09T07:01:42;101384.96;;;18.91;100.00
54022;BME280;39936;51.058;17.220;2022-09-09T07:13:58;101399.63;;;18.99;100.00
54022;BME280;39936;51.058;17.220;2022-09-09T07:17:20;101400.82;;;19.13;100.00
54022;BME280;39936;51.058;17.220;2022-09-09T07:24:47;101367.81;;;19.61;100.00
54022;BME280;39936;51.058;17.220;2022-09-09T07:28:26;101402.92;;;19.81;99.94
54022;BME280;39936;51.058;17.220;2022-09-09T07:31:57;101397.41;;;19.93;99.68
54022;BME280;39936;51.058;17.220;2022-09-09T07:41:58;101398.67;;;20.51;95.66
54022;BME280;39936;51.058;17.220;2022-09-09T07:45:34;101400.07;;;20.67;89.21
54022;BME280;39936;51.058;17.220;2022-09-09T07:48:52;101408.73;;;20.62;90.12
54022;BME280;39936;51.058;17.220;2022-09-09T07:52:05;101418.04;;;20.51;88.90
54022;BME280;39936;51.058;17.220;2022-09-09T08:25:13;101395.21;;;22.24;83.54
54022;BME280;39936;51.058;17.220;2022-09-09T08:28:48;101398.05;;;22.02;79.30
54022;BME280;39936;51.058;17.220;2022-09-09T08:50:19;101402.29;;;21.68;68.44
54022;BME280;39936;51.058;17.220;2022-09-09T09:12:54;101403.12;;;22.50;67.96
54022;BME280;39936;51.058;17.220;2022-09-09T09:31:59;101406.47;;;22.50;64.75
54022;BME280;39936;51.058;17.220;2022-09-09T09:48:12;101402.91;;;22.41;65.00
54022;BME280;39936;51.058;17.220;2022-09-09T10:04:26;101408.92;;;22.34;68.52
54022;BME280;39936;51.058;17.220;2022-09-09T10:25:20;101383.80;;;23.24;62.62
54022;BME280;39936;51.058;17.220;2022-09-09T10:42:18;101392.08;;;23.28;62.87
54022;BME280;39936;51.058;17.220;2022-09-09T10:58:25;101383.82;;;22.99;59.91
54022;BME280;39936;51.058;17.220;2022-09-09T11:03:03;101388.54;;;22.82;64.52
54022;BME280;39936;51.058;17.220;2022-09-09T11:06:52;101369.52;;;22.53;63.96
54022;BME280;39936;51.058;17.220;2022-09-09T11:14:43;101390.12;;;22.24;60.49
54022;BME280;39936;51.058;17.220;2022-09-09T11:45:34;101381.60;;;23.45;55.90
54022;BME280;39936;51.058;17.220;2022-09-09T11:50:07;101390.03;;;23.10;56.70
54022;BME280;39936;51.058;17.220;2022-09-09T11:55:08;101391.06;;;23.27;57.63
54022;BME280;39936;51.058;17.220;2022-09-09T11:59:49;101376.09;;;23.44;58.87
54022;BME280;39936;51.058;17.220;2022-09-09T13:22:50;101343.90;;;25.05;49.74
54022;BME280;39936;51.058;17.220;2022-09-09T14:45:24;101322.09;;;23.94;54.02
54022;BME280;39936;51.058;17.220;2022-09-09T14:53:42;101319.44;;;23.18;55.83
54022;BME280;39936;51.058;17.220;2022-09-09T14:57:30;101310.74;;;22.96;56.16
54022;BME280;39936;51.058;17.220;2022-09-09T18:07:30;101352.70;;;18.12;94.09
54022;BME280;39936;51.058;17.220;2022-09-09T18:11:34;101369.66;;;18.20;93.32
54022;BME280;39936;51.058;17.220;2022-09-09T18:14:49;101366.55;;;18.27;92.15
54022;BME280;39936;51.058;17.220;2022-09-09T18:21:45;101344.22;;;18.02;93.61
54022;BME280;39936;51.058;17.220;2022-09-09T18:25:10;101372.66;;;18.08;95.47
54022;BME280;39936;51.058;17.220;2022-09-09T18:28:27;101372.77;;;18.01;96.57
54022;BME280;39936;51.058;17.220;2022-09-09T18:32:18;101373.24;;;17.98;96.00
54022;BME280;39936;51.058;17.220;2022-09-09T18:35:36;101366.32;;;18.02;94.92
54022;BME280;39936;51.058;17.220;2022-09-09T18:38:51;101366.70;;;18.03;94.24
54022;BME280;39936;51.058;17.220;2022-09-09T18:42:13;101370.37;;;18.04;94.02
54022;BME280;39936;51.058;17.220;2022-09-09T18:45:27;101371.16;;;18.02;94.51
54022;BME280;39936;51.058;17.220;2022-09-09T18:49:20;101373.73;;;17.93;94.77
54022;BME280;39936;51.058;17.220;2022-09-09T18:52:34;101374.63;;;17.89;94.36
54022;BME280;39936;51.058;17.220;2022-09-09T18:56:25;101374.01;;;17.72;98.68
54022;BME280;39936;51.058;17.220;2022-09-09T18:59:47;101357.07;;;17.41;100.00
54022;BME280;39936;51.058;17.220;2022-09-09T19:03:02;101380.25;;;17.49;100.00
54022;BME280;39936;51.058;17.220;2022-09-09T19:13:12;101376.55;;;17.47;99.77
54022;BME280;39936;51.058;17.220;2022-09-09T19:16:31;101383.50;;;17.61;98.81
54022;BME280;39936;51.058;17.220;2022-09-09T19:19:39;101380.52;;;17.58;99.17
54022;BME280;39936;51.058;17.220;2022-09-09T19:22:59;101379.36;;;17.49;100.00
54022;BME280;39936;51.058;17.220;2022-09-09T19:26:17;101377.74;;;17.44;100.00
54022;BME280;39936;51.058;17.220;2022-09-09T19:29:50;101378.99;;;17.44;99.95
54022;BME280;39936;51.058;17.220;2022-09-09T19:33:40;101373.86;;;17.41;99.61
54022;BME280;39936;51.058;17.220;2022-09-09T19:41:07;101379.87;;;17.13;100.00
54022;BME280;39936;51.058;17.220;2022-09-09T19:45:03;101380.08;;;17.09;100.00
54022;BME280;39936;51.058;17.220;2022-09-09T19:49:07;101381.62;;;17.16;100.00
54022;BME280;39936;51.058;17.220;2022-09-09T19:55:55;101385.30;;;17.26;100.00
54022;BME280;39936;51.058;17.220;2022-09-09T19:59:15;101393.32;;;17.23;100.00
54022;BME280;39936;51.058;17.220;2022-09-09T20:06:23;101400.19;;;17.03;100.00
54022;BME280;39936;51.058;17.220;2022-09-09T20:09:39;101406.17;;;16.95;100.00
54022;BME280;39936;51.058;17.220;2022-09-09T20:12:53;101410.72;;;16.86;100.00
54022;BME280;39936;51.058;17.220;2022-09-09T20:16:26;101413.68;;;16.77;100.00
54022;BME280;39936;51.058;17.220;2022-09-09T20:19:51;101415.97;;;16.74;100.00
54022;BME280;39936;51.058;17.220;2022-09-09T20:23:00;101420.98;;;16.77;100.00
54022;BME280;39936;51.058;17.220;2022-09-09T20:26:51;101414.04;;;16.76;100.00
54022;BME280;39936;51.058;17.220;2022-09-09T20:30:36;101420.99;;;16.82;100.00
54022;BME280;39936;51.058;17.220;2022-09-09T20:33:53;101425.34;;;16.88;100.00
54022;BME280;39936;51.058;17.220;2022-09-09T20:41:37;101428.09;;;16.97;100.00
54022;BME280;39936;51.058;17.220;2022-09-09T20:45:22;101424.42;;;17.05;100.00
54022;BME280;39936;51.058;17.220;2022-09-09T20:48:33;101423.98;;;17.08;100.00
54022;BME280;39936;51.058;17.220;2022-09-09T20:52:08;101426.45;;;17.03;100.00
54022;BME280;39936;51.058;17.220;2022-09-09T20:55:21;101418.98;;;17.00;100.00
54022;BME280;39936;51.058;17.220;2022-09-09T20:58:38;101424.95;;;17.06;100.00
54022;BME280;39936;51.058;17.220;2022-09-09T21:02:01;101428.58;;;17.08;100.00
54022;BME280;39936;51.058;17.220;2022-09-09T21:05:29;101432.17;;;17.10;100.00
54022;BME280;39936;51.058;17.220;2022-09-09T21:09:05;101437.04;;;17.12;100.00
54022;BME280;39936;51.058;17.220;2022-09-09T21:12:48;101441.53;;;17.09;100.00
54022;BME280;39936;51.058;17.220;2022-09-09T21:16:35;101450.19;;;17.07;100.00
54022;BME280;39936;51.058;17.220;2022-09-09T21:20:07;101458.91;;;17.11;100.00
54022;BME280;39936;51.058;17.220;2022-09-09T21:23:23;101471.70;;;17.03;100.00
54022;BME280;39936;51.058;17.220;2022-09-09T21:27:07;101489.02;;;17.01;100.00
54022;BME280;39936;51.058;17.220;2022-09-09T21:30:54;101496.87;;;17.02;100.00
54022;BME280;39936;51.058;17.220;2022-09-09T21:34:27;101496.84;;;16.73;100.00
54022;BME280;39936;51.058;17.220;2022-09-09T21:37:41;101506.39;;;16.53;100.00
54022;BME280;39936;51.058;17.220;2022-09-09T21:45:10;101526.88;;;16.33;100.00
54022;BME280;39936;51.058;17.220;2022-09-09T21:49:04;101526.18;;;16.29;100.00
54022;BME280;39936;51.058;17.220;2022-09-09T21:52:16;101525.37;;;16.28;100.00
54022;BME280;39936;51.058;17.220;2022-09-09T22:00:16;101518.60;;;16.22;100.00
54022;BME280;39936;51.058;17.220;2022-09-09T22:08:26;101516.58;;;16.00;100.00
54022;BME280;39936;51.058;17.220;2022-09-09T22:12:26;101514.82;;;15.89;100.00
54022;BME280;39936;51.058;17.220;2022-09-09T22:16:10;101517.34;;;15.85;100.00
54022;BME280;39936;51.058;17.220;2022-09-09T22:19:36;101518.47;;;15.82;100.00
54022;BME280;39936;51.058;17.220;2022-09-09T22:27:29;101520.74;;;15.76;100.00
54022;BME280;39936;51.058;17.220;2022-09-09T22:31:13;101519.70;;;15.64;100.00
54022;BME280;39936;51.058;17.220;2022-09-09T22:35:13;101521.66;;;15.57;100.00
54022;BME280;39936;51.058;17.220;2022-09-09T22:38:25;101521.28;;;15.59;100.00
54022;BME280;39936;51.058;17.220;2022-09-09T22:41:49;101517.34;;;15.63;100.00
54022;BME280;39936;51.058;17.220;2022-09-09T22:45:06;101510.30;;;15.62;100.00
54022;BME280;39936;51.058;17.220;2022-09-09T23:00:39;101465.14;;;15.38;100.00
54022;BME280;39936;51.058;17.220;2022-09-09T23:04:21;101458.89;;;15.36;100.00
54022;BME280;39936;51.058;17.220;2022-09-09T23:07:49;101461.33;;;15.34;100.00
54022;BME280;39936;51.058;17.220;2022-09-09T23:11:17;101460.87;;;15.28;100.00
54022;BME280;39936;51.058;17.220;2022-09-09T23:14:29;101468.67;;;15.28;100.00
54022;BME280;39936;51.058;17.220;2022-09-09T23:18:05;101472.54;;;15.29;100.00
54022;BME280;39936;51.058;17.220;2022-09-09T23:22:06;101474.80;;;15.29;100.00
54022;BME280;39936;51.058;17.220;2022-09-09T23:25:17;101478.49;;;15.26;100.00
54022;BME280;39936;51.058;17.220;2022-09-09T23:28:40;101485.59;;;15.24;100.00
54022;BME280;39936;51.058;17.220;2022-09-09T23:32:32;101491.17;;;15.31;100.00
54022;BME280;39936;51.058;17.220;2022-09-09T23:37:01;101497.84;;;15.34;100.00
54022;BME280;39936;51.058;17.220;2022-09-09T23:40:53;101506.08;;;15.40;100.00
54022;BME280;39936;51.058;17.220;2022-09-09T23:44:34;101516.15;;;15.41;100.00
54022;BME280;39936;51.058;17.220;2022-09-09T23:47:51;101519.70;;;15.43;100.00
54022;BME280;39936;51.058;17.220;2022-09-09T23:52:02;101516.20;;;15.42;100.00
54022;BME280;39936;51.058;17.220;2022-09-09T23:55:44;101513.86;;;15.38;100.00
54022;BME280;39936;51.058;17.220;2022-09-09T23:59:28;101513.11;;;15.15;100.00
